Time;durP1;ratioP1;P1;durP2;ratioP2;P2;SDS_P1;SDS_P2;PMS_P1;PMS_P2;Temp;Humidity;BMP_temperature;BMP_pressure;BME280_temperature;BME280_humidity;BME280_pressure;Samples;Min_cycle;Max_cycle;Signal;HPM_P1;HPM_P2
2023/07/19 00:00:33;;;;;;;7.03;2.30;;;19.90;99.40;;;;;;4201623;28;20044;-55
2023/07/19 00:02:53;;;;;;;4.03;1.90;;;19.70;99.60;;;;;;4200486;28;20052;-56
2023/07/19 00:05:13;;;;;;;3.80;1.77;;;19.80;99.90;;;;;;4199349;28;20047;-55
2023/07/19 00:07:33;;;;;;;3.72;2.38;;;20.10;99.10;;;;;;4201642;28;20415;-56
2023/07/19 00:09:53;;;;;;;1.58;1.48;;;20.00;99.20;;;;;;4203844;28;20071;-55
2023/07/19 00:12:12;;;;;;;3.22;2.25;;;20.00;98.80;;;;;;4203644;28;20106;-55
2023/07/19 00:14:33;;;;;;;6.68;2.15;;;19.90;99.30;;;;;;4196581;28;20075;-55
2023/07/19 00:16:53;;;;;;;5.18;1.73;;;19.70;99.70;;;;;;4196294;28;20074;-55
2023/07/19 00:19:13;;;;;;;4.78;2.38;;;19.90;99.40;;;;;;4195335;28;20094;-56
2023/07/19 00:21:40;;;;;;;9.30;2.40;;;19.70;99.90;;;;;;4191115;28;20333;-55
2023/07/19 00:24:01;;;;;;;3.15;2.22;;;19.90;99.30;;;;;;4197805;28;20406;-55
2023/07/19 00:26:21;;;;;;;1.88;1.60;;;20.00;99.70;;;;;;4201636;28;20043;-55
2023/07/19 00:28:41;;;;;;;2.60;2.35;;;19.90;99.90;;;;;;4200892;28;20048;-55
2023/07/19 00:31:03;;;;;;;3.10;1.55;;;19.70;99.90;;;;;;4200597;28;20104;-55
2023/07/19 00:33:23;;;;;;;5.65;2.22;;;19.50;99.90;;;;;;4201278;28;20044;-55
2023/07/19 00:35:43;;;;;;;2.53;2.17;;;19.60;99.90;;;;;;4200373;28;20050;-55
2023/07/19 00:38:04;;;;;;;4.35;2.20;;;19.60;99.90;;;;;;4199312;28;20062;-56
2023/07/19 00:40:25;;;;;;;2.87;2.43;;;19.50;99.90;;;;;;4196680;28;20063;-56
2023/07/19 00:42:44;;;;;;;4.97;2.80;;;19.30;99.90;;;;;;4198419;28;20050;-55
2023/07/19 00:45:05;;;;;;;7.35;2.03;;;19.20;99.90;;;;;;4199060;28;20413;-55
2023/07/19 00:47:24;;;;;;;6.07;3.25;;;19.10;99.90;;;;;;4198791;28;20083;-55
2023/07/19 00:49:47;;;;;;;7.53;3.00;;;19.00;99.90;;;;;;4195593;28;20047;-55
2023/07/19 00:52:08;;;;;;;3.55;2.42;;;19.10;99.90;;;;;;4196449;28;20052;-55
2023/07/19 00:54:28;;;;;;;2.03;1.48;;;19.30;99.90;;;;;;4199284;28;20048;-56
2023/07/19 00:56:48;;;;;;;8.40;2.65;;;19.30;99.90;;;;;;4200511;28;20135;-55
2023/07/19 00:59:11;;;;;;;4.18;2.10;;;19.40;99.90;;;;;;4201532;28;20139;-55
2023/07/19 01:01:31;;;;;;;3.67;2.58;;;19.30;99.90;;;;;;4200584;28;20044;-61
2023/07/19 01:03:51;;;;;;;9.20;2.75;;;19.40;99.90;;;;;;4209333;22;20110;-57
2023/07/19 01:06:11;;;;;;;2.50;2.30;;;19.40;99.90;;;;;;4183336;28;20051;-57
2023/07/19 01:08:31;;;;;;;5.13;2.42;;;19.50;99.90;;;;;;4184166;28;20075;-57
2023/07/19 01:10:51;;;;;;;2.65;2.10;;;19.50;99.90;;;;;;4183881;28;20088;-57
2023/07/19 01:13:12;;;;;;;3.78;1.70;;;19.40;99.90;;;;;;4186138;28;20060;-56
2023/07/19 01:15:32;;;;;;;2.28;1.83;;;19.30;99.90;;;;;;4186915;28;20076;-56
2023/07/19 01:17:52;;;;;;;3.33;2.35;;;19.20;99.90;;;;;;4185830;28;20083;-57
2023/07/19 01:20:12;;;;;;;3.45;2.42;;;19.10;99.90;;;;;;4179837;28;20053;-56
2023/07/19 01:22:32;;;;;;;2.05;1.95;;;19.10;99.90;;;;;;4179303;28;20063;-56
2023/07/19 01:24:52;;;;;;;8.23;2.00;;;18.80;99.90;;;;;;4179452;28;20080;-56
2023/07/19 01:27:13;;;;;;;4.22;2.05;;;18.80;99.90;;;;;;4177773;28;20087;-57
2023/07/19 01:29:42;;;;;;;4.40;1.60;;;18.70;99.90;;;;;;4181485;28;20367;-56
2023/07/19 01:32:02;;;;;;;7.07;2.83;;;18.50;99.90;;;;;;4184781;28;20060;-56
2023/07/19 01:34:23;;;;;;;5.97;2.13;;;18.40;99.90;;;;;;4181876;28;20055;-57
2023/07/19 01:36:43;;;;;;;4.40;2.50;;;18.60;99.90;;;;;;4186035;28;20287;-56
2023/07/19 01:39:03;;;;;;;4.57;2.45;;;18.70;99.90;;;;;;4183609;28;20044;-57
2023/07/19 01:41:23;;;;;;;4.18;2.40;;;18.70;99.90;;;;;;4183832;28;20105;-57
2023/07/19 01:43:43;;;;;;;1.98;1.58;;;18.50;99.90;;;;;;4181979;28;20044;-57
2023/07/19 01:46:03;;;;;;;5.95;2.42;;;18.30;99.90;;;;;;4179849;28;20052;-57
2023/07/19 01:48:23;;;;;;;4.72;2.63;;;18.40;99.90;;;;;;4181708;28;20112;-56
2023/07/19 01:50:47;;;;;;;1.95;1.85;;;18.20;99.90;;;;;;4180969;28;20044;-57
2023/07/19 01:53:07;;;;;;;5.25;2.60;;;18.50;99.90;;;;;;4179596;28;20053;-57
2023/07/19 01:55:30;;;;;;;9.70;2.95;;;18.70;99.90;;;;;;4179096;28;20235;-57
2023/07/19 01:57:50;;;;;;;3.03;2.10;;;18.50;99.90;;;;;;4181940;28;20120;-57
2023/07/19 02:00:10;;;;;;;4.85;2.13;;;18.60;99.90;;;;;;4184630;28;20402;-57
2023/07/19 02:02:30;;;;;;;2.13;1.58;;;18.60;99.90;;;;;;4186359;28;20048;-56
2023/07/19 02:04:50;;;;;;;3.58;2.65;;;18.70;99.90;;;;;;4185964;28;20079;-56
2023/07/19 02:07:10;;;;;;;7.82;2.53;;;18.40;99.90;;;;;;4186046;28;20076;-56
2023/07/19 02:09:30;;;;;;;2.28;1.80;;;18.10;99.90;;;;;;4184154;28;20059;-57
2023/07/19 02:11:50;;;;;;;5.82;2.65;;;18.30;99.90;;;;;;4187485;28;20143;-57
2023/07/19 02:14:11;;;;;;;7.43;2.60;;;18.50;99.90;;;;;;4186458;28;20063;-57
2023/07/19 02:16:30;;;;;;;3.60;2.42;;;18.50;99.90;;;;;;4186464;28;20048;-56
2023/07/19 02:18:50;;;;;;;7.43;1.98;;;18.50;99.90;;;;;;4187868;28;20048;-56
2023/07/19 02:21:10;;;;;;;2.55;2.38;;;18.50;99.90;;;;;;4188627;28;20037;-57
2023/07/19 02:23:30;;;;;;;3.47;2.65;;;18.40;99.90;;;;;;4184621;28;20366;-57
2023/07/19 02:25:50;;;;;;;3.38;2.08;;;18.40;99.90;;;;;;4179354;28;20059;-57
2023/07/19 02:28:11;;;;;;;3.42;3.13;;;18.40;99.90;;;;;;4180402;28;20135;-57
2023/07/19 02:30:31;;;;;;;2.90;2.58;;;18.10;99.90;;;;;;4183345;28;20055;-57
2023/07/19 02:32:51;;;;;;;6.13;3.47;;;18.00;99.90;;;;;;4183368;28;20056;-57
2023/07/19 02:35:11;;;;;;;5.03;2.47;;;17.90;99.90;;;;;;4179561;28;20086;-56
2023/07/19 02:37:31;;;;;;;8.55;3.65;;;17.90;99.90;;;;;;4183653;28;20274;-57
2023/07/19 02:39:51;;;;;;;5.10;2.63;;;17.90;99.90;;;;;;4184240;28;20048;-56
2023/07/19 02:42:12;;;;;;;2.42;2.22;;;17.70;99.90;;;;;;4184939;28;20053;-57
2023/07/19 02:44:32;;;;;;;2.88;2.63;;;17.60;99.90;;;;;;4184865;28;20077;-57
2023/07/19 02:46:51;;;;;;;7.50;2.67;;;17.60;99.90;;;;;;4184615;28;20052;-57
2023/07/19 02:49:12;;;;;;;7.80;2.33;;;17.70;99.90;;;;;;4184826;28;20049;-56
2023/07/19 02:51:31;;;;;;;7.85;3.08;;;17.60;99.90;;;;;;4183625;28;20243;-57
2023/07/19 02:53:52;;;;;;;6.55;3.00;;;17.60;99.90;;;;;;4182633;28;20052;-56
2023/07/19 02:56:12;;;;;;;8.73;4.07;;;17.60;99.90;;;;;;4182152;28;20378;-56
2023/07/19 02:58:32;;;;;;;3.58;2.22;;;17.60;99.90;;;;;;4180219;28;20060;-57
2023/07/19 03:00:53;;;;;;;3.05;2.72;;;17.40;99.90;;;;;;4181011;28;20044;-57
2023/07/19 03:03:14;;;;;;;6.97;2.63;;;17.30;99.90;;;;;;4183410;28;20045;-57
2023/07/19 03:05:34;;;;;;;8.63;2.33;;;17.30;99.90;;;;;;4184287;28;20044;-56
2023/07/19 03:07:54;;;;;;;3.67;2.85;;;17.10;99.90;;;;;;4184667;28;20330;-57
2023/07/19 03:10:15;;;;;;;6.70;3.40;;;17.20;99.90;;;;;;4185618;28;20113;-56
2023/07/19 03:12:35;;;;;;;3.70;2.42;;;17.20;99.90;;;;;;4184018;28;20048;-56
2023/07/19 03:14:55;;;;;;;4.88;2.13;;;17.30;99.90;;;;;;4183705;28;20248;-57
2023/07/19 03:17:15;;;;;;;5.80;3.22;;;17.40;99.90;;;;;;4187365;28;20052;-57
2023/07/19 03:19:36;;;;;;;7.60;2.30;;;17.30;99.90;;;;;;4185449;28;20112;-56
2023/07/19 03:21:56;;;;;;;5.28;3.38;;;17.40;99.90;;;;;;4185608;28;20285;-56
2023/07/19 03:24:16;;;;;;;4.65;2.65;;;17.30;99.90;;;;;;4187767;28;20090;-57
2023/07/19 03:26:36;;;;;;;3.22;2.92;;;17.20;99.90;;;;;;4186161;28;20040;-57
2023/07/19 03:28:56;;;;;;;6.70;2.83;;;17.00;99.90;;;;;;4184076;28;20075;-57
2023/07/19 03:31:16;;;;;;;6.97;3.13;;;16.90;99.90;;;;;;4182120;28;20044;-56
2023/07/19 03:33:36;;;;;;;3.05;2.85;;;16.80;99.90;;;;;;4181999;28;20122;-56
2023/07/19 03:35:56;;;;;;;3.45;3.13;;;16.70;99.90;;;;;;4183012;28;20055;-56
2023/07/19 03:38:18;;;;;;;4.00;3.15;;;16.60;99.90;;;;;;4182623;28;20075;-57
2023/07/19 03:40:39;;;;;;;5.85;2.75;;;16.60;99.90;;;;;;4177447;28;20048;-56
2023/07/19 03:42:58;;;;;;;5.57;2.67;;;16.60;99.90;;;;;;4183256;28;20088;-56
2023/07/19 03:45:19;;;;;;;5.45;2.83;;;16.80;99.90;;;;;;4184394;28;20048;-57
2023/07/19 03:47:39;;;;;;;3.55;3.35;;;16.80;99.90;;;;;;4184233;28;20060;-56
2023/07/19 03:49:59;;;;;;;5.75;3.08;;;16.70;99.90;;;;;;4184019;28;20056;-56
2023/07/19 03:52:19;;;;;;;3.45;2.80;;;16.60;99.90;;;;;;4183428;28;20044;-57
2023/07/19 03:54:39;;;;;;;3.65;2.88;;;16.30;99.90;;;;;;4185596;28;20558;-56
2023/07/19 03:56:59;;;;;;;7.57;3.78;;;16.60;99.90;;;;;;4183780;28;20228;-56
2023/07/19 03:59:19;;;;;;;9.93;3.33;;;17.00;99.90;;;;;;4183029;28;20048;-56
2023/07/19 04:01:38;;;;;;;3.50;2.70;;;16.80;99.90;;;;;;4182016;28;20235;-56
2023/07/19 04:03:59;;;;;;;5.32;3.15;;;17.00;99.90;;;;;;4182743;28;20043;-56
2023/07/19 04:06:19;;;;;;;3.05;2.70;;;17.10;99.90;;;;;;4183116;28;20048;-56
2023/07/19 04:08:39;;;;;;;5.30;2.78;;;17.20;99.90;;;;;;4183578;28;20397;-56
2023/07/19 04:10:59;;;;;;;3.30;3.00;;;17.20;99.90;;;;;;4184644;28;20045;-57
2023/07/19 04:13:20;;;;;;;5.25;3.88;;;17.00;99.90;;;;;;4182690;28;20057;-56
2023/07/19 04:15:40;;;;;;;10.43;4.05;;;17.10;99.90;;;;;;4183207;28;20099;-56
2023/07/19 04:18:00;;;;;;;4.00;3.08;;;17.20;99.90;;;;;;4182614;28;20071;-56
2023/07/19 04:20:22;;;;;;;3.80;3.17;;;17.10;99.90;;;;;;4185577;28;20048;-57
2023/07/19 04:22:42;;;;;;;4.65;3.28;;;17.30;99.90;;;;;;4183562;28;20311;-56
2023/07/19 04:25:03;;;;;;;8.57;3.40;;;17.10;99.90;;;;;;4183969;28;20244;-56
2023/07/19 04:27:23;;;;;;;8.32;3.13;;;17.10;99.90;;;;;;4184948;28;20052;-57
2023/07/19 04:29:43;;;;;;;3.80;2.63;;;16.80;99.90;;;;;;4184673;28;20056;-56
2023/07/19 04:32:03;;;;;;;5.72;3.67;;;16.90;99.90;;;;;;4181678;28;20079;-56
2023/07/19 04:34:23;;;;;;;3.67;3.38;;;16.90;99.90;;;;;;4181823;28;20502;-56
2023/07/19 04:36:45;;;;;;;8.27;3.78;;;16.80;99.90;;;;;;4182704;28;20407;-56
2023/07/19 04:39:05;;;;;;;4.35;2.88;;;16.80;99.90;;;;;;4183299;28;20141;-56
2023/07/19 04:41:25;;;;;;;7.63;3.08;;;16.90;99.90;;;;;;4181862;28;20087;-56
2023/07/19 04:43:45;;;;;;;2.92;2.60;;;16.90;99.90;;;;;;4176641;28;20083;-57
2023/07/19 04:46:05;;;;;;;5.32;3.25;;;16.90;99.90;;;;;;4183463;28;20052;-56
2023/07/19 04:48:26;;;;;;;4.93;2.33;;;16.80;99.90;;;;;;4181352;28;20099;-57
2023/07/19 04:50:53;;;;;;;5.03;3.22;;;16.80;99.90;;;;;;4183806;28;20043;-57
2023/07/19 04:53:12;;;;;;;5.25;2.83;;;16.70;99.90;;;;;;4184083;28;20048;-56
2023/07/19 04:55:33;;;;;;;7.25;3.80;;;16.80;99.90;;;;;;4184260;28;20056;-56
2023/07/19 04:57:53;;;;;;;3.63;2.75;;;17.00;99.90;;;;;;4183208;28;20148;-57
2023/07/19 05:00:14;;;;;;;4.88;4.25;;;17.00;99.90;;;;;;4182744;28;20386;-57
2023/07/19 05:02:38;;;;;;;10.65;3.55;;;17.00;99.90;;;;;;4168667;28;20052;-57
2023/07/19 05:04:59;;;;;;;4.85;2.65;;;17.00;99.90;;;;;;4184319;28;20055;-57
2023/07/19 05:07:19;;;;;;;8.38;3.60;;;17.20;99.90;;;;;;4183658;28;20051;-56
2023/07/19 05:09:38;;;;;;;3.17;2.13;;;17.20;99.90;;;;;;4186397;28;20426;-56
2023/07/19 05:11:58;;;;;;;6.57;3.90;;;17.40;99.90;;;;;;4181894;28;20084;-56
2023/07/19 05:14:19;;;;;;;8.05;3.45;;;17.30;99.90;;;;;;4180631;28;20136;-57
2023/07/19 05:16:39;;;;;;;6.20;3.60;;;17.40;99.90;;;;;;4180641;28;20068;-57
2023/07/19 05:18:59;;;;;;;7.07;3.42;;;17.30;99.90;;;;;;4181956;28;20086;-57
2023/07/19 05:21:19;;;;;;;6.97;4.05;;;17.40;99.90;;;;;;4181344;28;20041;-57
2023/07/19 05:23:41;;;;;;;10.95;3.92;;;17.40;99.90;;;;;;4180929;28;20087;-56
2023/07/19 05:26:00;;;;;;;5.28;2.85;;;17.40;99.90;;;;;;4181305;28;20307;-56
2023/07/19 05:28:20;;;;;;;4.75;3.90;;;17.40;99.90;;;;;;4183139;28;20457;-57
2023/07/19 05:30:40;;;;;;;3.40;2.75;;;17.40;99.90;;;;;;4187222;28;20044;-56
2023/07/19 05:33:01;;;;;;;5.88;3.80;;;17.40;99.90;;;;;;4187357;28;20091;-56
2023/07/19 05:35:21;;;;;;;6.60;4.00;;;17.40;99.90;;;;;;4186730;28;20104;-56
2023/07/19 05:37:42;;;;;;;4.13;3.25;;;17.40;99.90;;;;;;4184502;28;20441;-57
2023/07/19 05:40:04;;;;;;;4.13;3.72;;;17.50;99.90;;;;;;4184161;28;20068;-57
2023/07/19 05:42:24;;;;;;;8.57;4.20;;;17.50;99.90;;;;;;4183602;28;20275;-57
2023/07/19 05:44:44;;;;;;;7.30;3.88;;;17.60;99.90;;;;;;4183824;28;20382;-56
2023/07/19 05:47:05;;;;;;;5.45;3.83;;;17.80;99.90;;;;;;4180237;28;20082;-56
2023/07/19 05:49:25;;;;;;;9.18;3.50;;;17.90;99.90;;;;;;4180383;28;20064;-56
2023/07/19 05:51:45;;;;;;;4.28;3.60;;;18.00;99.90;;;;;;4169019;28;20359;-57
2023/07/19 05:54:05;;;;;;;3.85;2.80;;;18.00;99.90;;;;;;4187022;28;20076;-56
2023/07/19 05:56:26;;;;;;;3.75;2.95;;;18.10;99.90;;;;;;4185986;28;20044;-56
2023/07/19 05:58:46;;;;;;;4.35;4.05;;;18.20;99.90;;;;;;4185038;28;20044;-56
2023/07/19 06:01:09;;;;;;;6.40;2.53;;;18.40;99.90;;;;;;4187381;28;20155;-56
2023/07/19 06:03:29;;;;;;;5.65;3.35;;;18.50;99.90;;;;;;4187502;28;20049;-56
2023/07/19 06:05:50;;;;;;;6.28;3.15;;;18.50;99.90;;;;;;4186877;28;20224;-57
2023/07/19 06:08:11;;;;;;;4.85;2.55;;;18.70;99.90;;;;;;4186105;28;20102;-57
2023/07/19 06:10:44;;;;;;;6.07;3.33;;;18.80;99.90;;;;;;4187118;28;20083;-57
2023/07/19 06:13:06;;;;;;;3.72;2.60;;;19.10;99.90;;;;;;4188626;28;20094;-56
2023/07/19 06:15:26;;;;;;;4.30;2.25;;;19.20;99.90;;;;;;4188018;28;20044;-56
2023/07/19 06:17:46;;;;;;;4.07;2.70;;;19.30;99.90;;;;;;4180893;28;20053;-56
2023/07/19 06:20:07;;;;;;;3.38;2.90;;;19.30;99.90;;;;;;4180434;28;20049;-57
2023/07/19 06:22:27;;;;;;;4.38;3.25;;;19.30;99.90;;;;;;4178728;28;20057;-56
2023/07/19 06:24:47;;;;;;;7.47;3.00;;;19.40;99.90;;;;;;4182446;28;20099;-56
2023/07/19 06:27:08;;;;;;;8.15;3.05;;;19.60;99.90;;;;;;4183178;28;20241;-56
2023/07/19 06:29:27;;;;;;;7.88;3.45;;;19.80;99.90;;;;;;4180996;28;20056;-56
2023/07/19 06:31:48;;;;;;;5.50;2.70;;;20.00;99.90;;;;;;4183734;28;20390;-57
2023/07/19 06:34:08;;;;;;;5.13;2.70;;;20.20;99.90;;;;;;4185947;28;20083;-56
2023/07/19 06:36:28;;;;;;;4.03;3.42;;;20.40;99.90;;;;;;4187428;28;20243;-57
2023/07/19 06:38:48;;;;;;;4.75;1.75;;;20.50;99.90;;;;;;4186255;28;20052;-57
2023/07/19 06:41:08;;;;;;;2.28;2.03;;;20.80;99.90;;;;;;4184468;28;20047;-56
2023/07/19 06:43:28;;;;;;;5.25;2.58;;;20.80;99.90;;;;;;4184150;28;20079;-56
2023/07/19 06:45:49;;;;;;;5.82;2.42;;;20.70;99.90;;;;;;4184365;28;20044;-57
2023/07/19 06:48:09;;;;;;;11.20;1.73;;;21.00;99.90;;;;;;4183151;28;20044;-57
2023/07/19 06:50:30;;;;;;;8.55;2.78;;;21.40;99.90;;;;;;4182800;28;20109;-57
2023/07/19 06:52:50;;;;;;;5.35;2.38;;;21.40;99.90;;;;;;4179532;28;20048;-56
2023/07/19 06:55:10;;;;;;;6.43;1.85;;;21.90;99.90;;;;;;4180960;28;20043;-57
2023/07/19 06:57:31;;;;;;;4.78;2.05;;;22.00;99.90;;;;;;4184529;28;20067;-56
2023/07/19 06:59:51;;;;;;;3.15;1.80;;;22.20;99.90;;;;;;4185243;28;20048;-57
2023/07/19 07:02:11;;;;;;;2.63;1.20;;;22.30;99.90;;;;;;4185639;28;20095;-57
2023/07/19 07:04:31;;;;;;;7.22;1.83;;;22.50;99.90;;;;;;4185392;28;20404;-57
2023/07/19 07:06:51;;;;;;;6.90;1.30;;;22.80;99.90;;;;;;4184003;28;20072;-57
2023/07/19 07:09:11;;;;;;;3.67;1.40;;;22.80;99.00;;;;;;4186168;28;20063;-56
2023/07/19 07:11:31;;;;;;;8.43;1.73;;;22.90;99.00;;;;;;4184537;28;20051;-57
2023/07/19 07:13:51;;;;;;;3.47;1.45;;;22.80;99.20;;;;;;4186056;28;20055;-57
2023/07/19 07:16:12;;;;;;;1.58;1.30;;;23.10;99.90;;;;;;4187240;28;20036;-57
2023/07/19 07:18:32;;;;;;;1.65;1.33;;;23.60;97.60;;;;;;4187347;28;20052;-57
2023/07/19 07:20:52;;;;;;;8.73;1.65;;;23.90;98.00;;;;;;4185871;28;20049;-57
2023/07/19 07:23:12;;;;;;;4.95;1.40;;;23.90;97.90;;;;;;4182814;28;20056;-57
2023/07/19 07:25:33;;;;;;;7.28;1.67;;;24.00;97.60;;;;;;4179364;28;20076;-57
2023/07/19 07:27:53;;;;;;;8.95;2.08;;;24.30;98.00;;;;;;4179922;28;20049;-57
2023/07/19 07:30:13;;;;;;;6.30;1.83;;;24.50;97.00;;;;;;4177090;28;20084;-57
2023/07/19 07:32:34;;;;;;;2.88;1.50;;;24.70;95.80;;;;;;4185804;28;20055;-57
2023/07/19 07:34:54;;;;;;;5.65;1.40;;;24.20;96.20;;;;;;4182636;28;20047;-57
2023/07/19 07:37:13;;;;;;;3.88;1.23;;;24.60;96.70;;;;;;4182741;28;20240;-57
2023/07/19 07:39:35;;;;;;;4.18;1.25;;;24.80;96.70;;;;;;4183060;28;20088;-57
2023/07/19 07:41:55;;;;;;;7.45;1.25;;;25.20;96.80;;;;;;4187829;28;20051;-57
2023/07/19 07:44:15;;;;;;;5.47;1.35;;;25.20;96.50;;;;;;4186465;28;20051;-57
2023/07/19 07:46:36;;;;;;;5.05;2.15;;;25.70;96.10;;;;;;4184524;28;20052;-57
2023/07/19 07:48:59;;;;;;;5.43;1.48;;;25.50;94.90;;;;;;4182846;28;20056;-57
2023/07/19 07:51:19;;;;;;;6.97;1.63;;;25.60;95.90;;;;;;4181861;28;20083;-58
2023/07/19 07:53:40;;;;;;;4.05;1.30;;;25.80;95.90;;;;;;4182413;28;20052;-57
2023/07/19 07:56:00;;;;;;;3.13;1.17;;;25.90;95.80;;;;;;4181399;28;20080;-57
2023/07/19 07:58:20;;;;;;;3.30;2.00;;;26.00;95.40;;;;;;4181048;28;20092;-57
2023/07/19 08:00:46;;;;;;;6.82;1.65;;;26.20;95.60;;;;;;4181880;28;20048;-57
2023/07/19 08:03:06;;;;;;;6.80;1.83;;;26.40;95.30;;;;;;4183338;28;20248;-57
2023/07/19 08:05:27;;;;;;;3.97;1.15;;;26.50;96.20;;;;;;4184094;28;20052;-57
2023/07/19 08:07:47;;;;;;;11.63;2.15;;;26.70;95.70;;;;;;4183913;28;20095;-57
2023/07/19 08:10:07;;;;;;;5.80;1.23;;;26.80;95.40;;;;;;4183919;28;20240;-57
2023/07/19 08:12:27;;;;;;;6.22;1.50;;;26.90;95.40;;;;;;4182220;28;20048;-57
2023/07/19 08:14:47;;;;;;;6.63;1.40;;;27.00;95.00;;;;;;4185478;28;20094;-57
2023/07/19 08:17:07;;;;;;;5.03;1.52;;;27.40;95.60;;;;;;4184080;28;20056;-57
2023/07/19 08:19:27;;;;;;;2.65;1.15;;;27.70;94.70;;;;;;4186148;28;20079;-57
2023/07/19 08:21:47;;;;;;;5.43;1.60;;;27.70;94.10;;;;;;4186635;28;20048;-57
2023/07/19 08:24:07;;;;;;;6.25;1.40;;;27.90;95.00;;;;;;4185995;28;20047;-57
2023/07/19 08:26:28;;;;;;;4.97;1.50;;;27.90;93.80;;;;;;4181852;28;20072;-58
2023/07/19 08:28:48;;;;;;;2.03;1.10;;;28.20;94.30;;;;;;4181320;28;20056;-57
2023/07/19 08:31:08;;;;;;;5.45;1.58;;;28.50;92.90;;;;;;4179599;28;20079;-57
2023/07/19 08:33:28;;;;;;;5.70;1.35;;;28.50;92.60;;;;;;4180373;28;20744;-57
2023/07/19 08:35:49;;;;;;;7.65;1.08;;;28.00;92.60;;;;;;4178990;28;20056;-57
2023/07/19 08:38:10;;;;;;;6.90;1.10;;;28.20;92.50;;;;;;4178932;28;20052;-57
2023/07/19 08:40:37;;;;;;;4.80;1.55;;;28.50;93.70;;;;;;4181962;28;20044;-57
2023/07/19 08:42:57;;;;;;;4.70;1.10;;;29.10;94.20;;;;;;4183986;28;20067;-57
2023/07/19 08:45:21;;;;;;;4.22;1.00;;;29.40;91.90;;;;;;4183043;28;20076;-57
2023/07/19 08:47:43;;;;;;;4.35;1.00;;;29.40;92.10;;;;;;4182950;28;20236;-58
2023/07/19 08:50:07;;;;;;;6.85;1.00;;;29.50;92.80;;;;;;4182959;28;20056;-57
2023/07/19 08:52:28;;;;;;;4.60;1.63;;;29.00;90.20;;;;;;4183407;28;20401;-58
2023/07/19 08:54:48;;;;;;;9.98;0.88;;;29.30;91.30;;;;;;4181199;28;20112;-57
2023/07/19 08:57:08;;;;;;;8.38;1.20;;;29.20;91.60;;;;;;4182397;28;20048;-57
2023/07/19 08:59:28;;;;;;;6.70;1.05;;;29.20;91.00;;;;;;4182285;28;20280;-58
2023/07/19 09:01:48;;;;;;;6.22;1.23;;;29.50;91.80;;;;;;4181114;28;20398;-57
2023/07/19 09:04:09;;;;;;;5.03;1.00;;;30.20;92.10;;;;;;4179270;28;20079;-58
2023/07/19 09:06:30;;;;;;;1.63;0.70;;;30.50;91.30;;;;;;4181972;28;20095;-57
2023/07/19 09:08:51;;;;;;;2.70;1.15;;;29.90;90.50;;;;;;4183515;28;20052;-57
2023/07/19 09:11:18;;;;;;;4.47;1.42;;;30.40;91.80;;;;;;4182888;28;20044;-57
2023/07/19 09:13:39;;;;;;;9.68;1.45;;;30.40;90.30;;;;;;4182733;28;20063;-57
2023/07/19 09:16:02;;;;;;;6.50;1.38;;;30.20;90.20;;;;;;4181168;28;20057;-57
2023/07/19 09:18:28;;;;;;;4.82;1.10;;;30.40;90.90;;;;;;4183633;28;20091;-57
2023/07/19 09:20:48;;;;;;;5.63;1.25;;;30.40;91.00;;;;;;4183230;28;20075;-58
2023/07/19 09:23:08;;;;;;;7.38;1.00;;;30.70;90.70;;;;;;4184447;28;20048;-58
2023/07/19 09:25:28;;;;;;;4.72;0.90;;;30.80;89.70;;;;;;4183997;28;20051;-57
2023/07/19 09:27:48;;;;;;;6.97;1.00;;;30.60;89.30;;;;;;4184772;28;20386;-57
2023/07/19 09:30:10;;;;;;;2.53;1.50;;;30.60;89.70;;;;;;4185527;28;20087;-57
2023/07/19 09:32:30;;;;;;;6.80;0.85;;;30.80;90.20;;;;;;4180909;28;20086;-57
2023/07/19 09:34:55;;;;;;;4.25;0.90;;;31.40;88.50;;;;;;4181601;28;20051;-57
2023/07/19 09:37:19;;;;;;;2.97;0.88;;;31.30;88.20;;;;;;4180468;28;20143;-58
2023/07/19 09:39:40;;;;;;;7.20;0.80;;;31.30;87.20;;;;;;4178969;28;20100;-57
2023/07/19 09:42:01;;;;;;;3.38;1.40;;;31.40;88.10;;;;;;4178466;28;20051;-57
2023/07/19 09:44:21;;;;;;;6.88;0.80;;;31.60;86.90;;;;;;4180778;28;20048;-58
2023/07/19 09:46:43;;;;;;;3.20;0.90;;;31.50;87.10;;;;;;4181683;28;20102;-58
2023/07/19 09:49:04;;;;;;;1.75;1.00;;;31.60;86.70;;;;;;4181952;28;20048;-57
2023/07/19 09:51:25;;;;;;;4.78;1.13;;;32.00;88.70;;;;;;4181811;28;20076;-58
2023/07/19 09:53:46;;;;;;;6.40;1.40;;;31.90;85.40;;;;;;4182295;28;20067;-57
2023/07/19 09:56:11;;;;;;;2.10;0.77;;;31.90;86.80;;;;;;4182179;28;20106;-57
2023/07/19 09:58:33;;;;;;;9.70;1.00;;;31.90;84.60;;;;;;4184463;28;20103;-57
2023/07/19 10:00:52;;;;;;;3.25;0.70;;;32.00;84.90;;;;;;4183120;28;20413;-58
2023/07/19 10:03:20;;;;;;;5.18;1.00;;;32.00;84.10;;;;;;4183475;28;20087;-58
2023/07/19 10:05:43;;;;;;;5.60;1.23;;;32.30;85.50;;;;;;4181556;28;20109;-57
2023/07/19 10:08:05;;;;;;;2.33;0.80;;;32.20;85.50;;;;;;4179762;28;20076;-57
2023/07/19 10:10:35;;;;;;;7.05;1.27;;;32.30;85.40;;;;;;4180383;28;20047;-57
2023/07/19 10:12:55;;;;;;;9.10;0.73;;;32.50;83.90;;;;;;4180792;28;20091;-57
2023/07/19 10:15:18;;;;;;;7.18;1.48;;;32.50;84.50;;;;;;4182999;28;20048;-58
2023/07/19 10:17:51;;;;;;;8.43;0.90;;;32.60;83.30;;;;;;4184231;28;20220;-58
2023/07/19 10:20:14;;;;;;;4.07;1.05;;;32.40;83.50;;;;;;4184258;28;20045;-57
2023/07/19 10:22:55;;;;;;;4.38;1.48;;;32.50;86.10;;;;;;4182922;28;20075;-57
2023/07/19 10:25:31;;;;;;;8.98;0.90;;;32.50;85.40;;;;;;4185277;28;20071;-58
2023/07/19 10:27:56;;;;;;;3.05;0.95;;;32.90;82.90;;;;;;4184933;28;20040;-58
2023/07/19 10:30:16;;;;;;;4.20;0.80;;;32.90;85.10;;;;;;4185889;28;20083;-57
2023/07/19 10:32:36;;;;;;;2.90;1.00;;;33.30;83.00;;;;;;4185720;28;20099;-58
2023/07/19 10:34:56;;;;;;;7.57;1.27;;;33.40;83.70;;;;;;4185030;28;20052;-57
2023/07/19 10:37:16;;;;;;;2.50;1.20;;;33.70;86.90;;;;;;4181929;28;20316;-57
2023/07/19 10:39:36;;;;;;;3.40;1.08;;;33.80;82.00;;;;;;4183284;28;20051;-57
2023/07/19 10:41:57;;;;;;;4.55;0.80;;;34.00;83.40;;;;;;4183246;28;20397;-57
2023/07/19 10:44:17;;;;;;;12.40;1.08;;;34.10;78.70;;;;;;4181936;28;20049;-58
2023/07/19 10:46:41;;;;;;;5.38;1.00;;;33.60;78.30;;;;;;4181350;28;20318;-57
2023/07/19 10:49:02;;;;;;;8.52;0.90;;;33.20;77.40;;;;;;4183155;28;20092;-57
2023/07/19 10:51:24;;;;;;;8.75;1.00;;;33.90;79.50;;;;;;4184487;28;20056;-57
2023/07/19 10:53:46;;;;;;;8.43;0.90;;;33.90;78.10;;;;;;4169765;28;20081;-57
2023/07/19 10:56:06;;;;;;;5.80;0.98;;;33.80;75.30;;;;;;4185199;28;20072;-58
2023/07/19 10:58:26;;;;;;;5.38;1.00;;;34.10;78.10;;;;;;4184791;28;20049;-58
2023/07/19 11:00:45;;;;;;;10.80;1.00;;;34.20;75.90;;;;;;4185421;28;20140;-57
2023/07/19 11:03:07;;;;;;;7.35;1.05;;;34.20;72.60;;;;;;4186742;28;20083;-58
2023/07/19 11:05:27;;;;;;;11.90;1.00;;;34.60;77.00;;;;;;4184731;28;20119;-57
2023/07/19 11:07:51;;;;;;;4.72;1.08;;;35.10;74.30;;;;;;4186131;28;20075;-58
2023/07/19 11:10:11;;;;;;;14.20;1.48;;;35.20;77.30;;;;;;4186422;28;20090;-58
2023/07/19 11:12:32;;;;;;;3.28;1.20;;;35.30;74.20;;;;;;4188360;28;20059;-58
2023/07/19 11:14:58;;;;;;;6.25;1.23;;;35.20;74.90;;;;;;4182579;28;20057;-58
2023/07/19 11:17:29;;;;;;;6.32;0.90;;;34.60;73.30;;;;;;4180487;28;20052;-57
2023/07/19 11:19:49;;;;;;;2.50;0.80;;;34.60;71.90;;;;;;4181510;28;20076;-57
2023/07/19 11:22:10;;;;;;;8.48;1.02;;;34.80;71.20;;;;;;4182977;28;20071;-58
2023/07/19 11:24:35;;;;;;;11.95;0.90;;;35.30;78.70;;;;;;4182763;28;20359;-58
2023/07/19 11:26:55;;;;;;;13.20;0.95;;;35.90;69.00;;;;;;4180875;28;20043;-58
2023/07/19 11:29:17;;;;;;;10.32;0.93;;;36.00;71.00;;;;;;4183074;28;20067;-58
2023/07/19 11:31:41;;;;;;;8.52;1.40;;;36.60;73.60;;;;;;4184082;28;20044;-58
2023/07/19 11:34:16;;;;;;;9.88;1.60;;;36.30;77.10;;;;;;4183961;28;20228;-58
2023/07/19 11:36:40;;;;;;;5.25;0.90;;;35.90;71.10;;;;;;4183897;28;20094;-58
2023/07/19 11:39:00;;;;;;;10.18;1.35;;;35.40;69.50;;;;;;4184981;28;20101;-58
2023/07/19 11:41:21;;;;;;;4.28;1.20;;;35.50;69.20;;;;;;4182409;28;20113;-58
2023/07/19 11:43:45;;;;;;;7.82;1.00;;;35.90;71.20;;;;;;4182726;28;20367;-58
2023/07/19 11:46:05;;;;;;;6.57;1.15;;;35.70;69.00;;;;;;4182156;28;20117;-58
2023/07/19 11:48:24;;;;;;;9.73;0.90;;;36.00;70.10;;;;;;4180375;28;20081;-58
2023/07/19 11:50:48;;;;;;;7.85;0.80;;;36.60;68.60;;;;;;4180693;28;20105;-58
2023/07/19 11:53:08;;;;;;;6.93;1.13;;;37.40;69.00;;;;;;4183093;28;20079;-58
2023/07/19 11:55:29;;;;;;;3.88;0.93;;;37.40;71.10;;;;;;4167715;28;20080;-58
2023/07/19 11:57:53;;;;;;;4.85;0.80;;;37.90;71.20;;;;;;4183870;28;20417;-58
2023/07/19 12:00:16;;;;;;;6.40;1.33;;;38.40;69.70;;;;;;4184221;28;20044;-58
2023/07/19 12:02:37;;;;;;;5.57;0.80;;;38.50;69.10;;;;;;4183387;28;20063;-58
2023/07/19 12:04:57;;;;;;;8.55;0.70;;;38.80;72.90;;;;;;4183285;28;20244;-59
2023/07/19 12:07:17;;;;;;;10.45;0.80;;;38.90;70.30;;;;;;4187678;28;20056;-58
2023/07/19 12:09:36;;;;;;;7.07;0.80;;;37.80;65.80;;;;;;4184027;28;20099;-58
2023/07/19 12:11:57;;;;;;;6.57;0.80;;;37.40;68.10;;;;;;4185613;28;20044;-59